createdAt,value
2023-03-05T00:01:29.852Z,23.10
2023-03-05T00:03:57.258Z,20.80
2023-03-05T00:06:28.633Z,22.70
2023-03-05T00:08:57.689Z,20.70
2023-03-05T00:11:29.624Z,23.40
2023-03-05T00:13:58.403Z,21.10
2023-03-05T00:16:27.000Z,25.60
2023-03-05T00:18:55.783Z,20.00
2023-03-05T00:21:26.625Z,26.50
2023-03-05T00:23:55.035Z,22.90
2023-03-05T00:26:24.873Z,28.40
2023-03-05T00:28:53.068Z,21.30
2023-03-05T00:31:31.346Z,21.00
2023-03-05T00:34:01.345Z,24.70
2023-03-05T00:36:34.909Z,25.60
2023-03-05T00:39:01.961Z,19.60
2023-03-05T00:41:28.960Z,18.00
2023-03-05T00:43:56.046Z,19.00
2023-03-05T00:46:28.470Z,19.20
2023-03-05T00:48:56.424Z,23.60
2023-03-05T00:51:26.868Z,16.80
2023-03-05T00:53:54.058Z,19.70
2023-03-05T00:56:23.756Z,19.70
2023-03-05T00:58:51.397Z,20.60
2023-03-05T01:01:18.797Z,23.70
2023-03-05T01:03:46.174Z,22.80
2023-03-05T01:06:16.489Z,21.50
2023-03-05T01:08:44.261Z,20.20
2023-03-05T01:11:11.854Z,23.00
2023-03-05T01:13:39.227Z,19.40
2023-03-05T01:16:08.804Z,22.10
2023-03-05T01:18:37.863Z,23.80
2023-03-05T01:21:07.539Z,22.60
2023-03-05T01:23:37.625Z,20.30
2023-03-05T01:26:05.813Z,21.10
2023-03-05T01:28:35.149Z,17.20
2023-03-05T01:31:06.152Z,21.70
2023-03-05T01:33:33.192Z,16.70
2023-03-05T01:36:07.698Z,17.30
2023-03-05T01:38:34.909Z,20.40
2023-03-05T01:41:01.880Z,19.10
2023-03-05T01:43:30.527Z,18.70
2023-03-05T01:46:12.777Z,17.60
2023-03-05T01:48:43.890Z,14.00
2023-03-05T01:51:11.450Z,19.90
2023-03-05T01:53:41.432Z,12.80
2023-03-05T01:56:10.111Z,17.50
2023-03-05T01:58:39.265Z,16.50
2023-03-05T02:01:06.435Z,16.70
2023-03-05T02:03:34.241Z,16.60
2023-03-05T02:06:06.819Z,19.70
2023-03-05T02:08:33.811Z,19.60
2023-03-05T02:11:01.710Z,17.60
2023-03-05T02:13:32.729Z,17.50
2023-03-05T02:16:02.536Z,21.20
2023-03-05T02:18:29.595Z,25.20
2023-03-05T02:20:56.480Z,29.10
2023-03-05T02:23:32.187Z,25.50
2023-03-05T02:25:59.711Z,20.90
2023-03-05T02:28:44.930Z,18.20
2023-03-05T02:33:40.961Z,19.30
2023-03-05T02:36:08.913Z,15.90
2023-03-05T02:38:35.988Z,17.50
2023-03-05T02:41:03.262Z,15.90
2023-03-05T02:43:30.691Z,14.60
2023-03-05T02:45:58.341Z,14.90
2023-03-05T02:48:25.521Z,15.00
2023-03-05T02:50:53.633Z,16.40
2023-03-05T02:53:22.084Z,14.70
2023-03-05T02:55:50.085Z,11.60
2023-03-05T02:58:18.066Z,15.20
2023-03-05T03:00:46.162Z,14.70
2023-03-05T03:03:13.760Z,10.90
2023-03-05T03:05:40.851Z,14.00
2023-03-05T03:08:08.418Z,11.80
2023-03-05T03:10:35.724Z,14.30
2023-03-05T03:13:02.813Z,17.90
2023-03-05T03:15:29.812Z,17.00
2023-03-05T03:17:56.895Z,25.10
2023-03-05T03:20:24.860Z,19.80
2023-03-05T03:22:51.844Z,15.30
2023-03-05T03:25:22.564Z,17.50
2023-03-05T03:27:52.209Z,16.40
2023-03-05T03:30:19.387Z,17.30
2023-03-05T03:32:46.485Z,13.50
2023-03-05T03:35:13.654Z,18.60
2023-03-05T03:37:40.875Z,17.60
2023-03-05T03:40:08.830Z,17.60
2023-03-05T03:42:35.839Z,14.00
2023-03-05T03:45:03.693Z,13.90
2023-03-05T03:47:30.789Z,14.20
2023-03-05T03:49:58.276Z,15.90
2023-03-05T03:52:25.974Z,16.30
2023-03-05T03:54:55.086Z,11.00
2023-03-05T03:57:22.371Z,9.00
2023-03-05T03:59:50.513Z,13.20
2023-03-05T04:02:17.968Z,14.80
2023-03-05T04:04:45.118Z,15.30
2023-03-05T04:07:12.369Z,13.00
2023-03-05T04:09:39.411Z,14.60
2023-03-05T04:12:06.734Z,10.90
2023-03-05T04:14:33.905Z,11.80
2023-03-05T04:17:00.893Z,12.60
2023-03-05T04:19:30.045Z,15.30
2023-03-05T04:21:58.874Z,12.90
2023-03-05T04:24:25.966Z,13.50
2023-03-05T04:26:53.253Z,14.40
2023-03-05T04:29:20.492Z,14.90
2023-03-05T04:31:47.525Z,17.40
2023-03-05T04:34:14.621Z,13.90
2023-03-05T04:36:41.726Z,18.90
2023-03-05T04:39:08.678Z,20.40
2023-03-05T04:41:35.686Z,22.20
2023-03-05T04:44:02.757Z,21.50
2023-03-05T04:46:30.034Z,27.50
2023-03-05T04:48:57.551Z,14.40
2023-03-05T04:51:24.897Z,14.00
2023-03-05T04:53:51.798Z,15.30
2023-03-05T04:56:18.812Z,14.80
2023-03-05T04:58:45.827Z,13.50
2023-03-05T05:01:13.181Z,25.10
2023-03-05T05:03:40.302Z,27.90
2023-03-05T05:06:07.733Z,45.20
2023-03-05T05:08:36.465Z,59.30
2023-03-05T05:11:06.247Z,22.40
2023-03-05T05:13:34.588Z,15.90
2023-03-05T05:16:02.045Z,10.50
2023-03-05T05:18:29.041Z,14.80
2023-03-05T05:20:56.026Z,28.70
2023-03-05T05:23:23.080Z,31.60
2023-03-05T05:26:01.433Z,27.20
2023-03-05T05:28:28.578Z,19.50
2023-03-05T05:30:56.662Z,17.50
2023-03-05T05:33:24.889Z,14.20
2023-03-05T05:35:52.613Z,20.20
2023-03-05T05:38:19.886Z,52.30
2023-03-05T05:40:46.842Z,26.50
2023-03-05T05:43:13.950Z,22.70
2023-03-05T05:45:40.997Z,34.00
2023-03-05T05:48:07.968Z,40.20
2023-03-05T05:50:34.945Z,33.50
2023-03-05T05:53:02.057Z,26.70
2023-03-05T05:55:29.163Z,23.40
2023-03-05T05:57:56.306Z,21.90
2023-03-05T06:00:23.340Z,17.50
2023-03-05T06:02:50.366Z,19.90
2023-03-05T06:05:17.487Z,18.00
2023-03-05T06:07:44.691Z,26.00
2023-03-05T06:10:11.827Z,23.50
2023-03-05T06:12:38.885Z,22.30
2023-03-05T06:15:06.394Z,20.50
2023-03-05T06:17:33.419Z,27.40
2023-03-05T06:20:00.507Z,31.70
2023-03-05T06:22:27.720Z,20.00
2023-03-05T06:24:54.846Z,14.20
2023-03-05T06:27:21.965Z,15.90
2023-03-05T06:29:52.569Z,18.60
2023-03-05T06:32:20.065Z,15.40
2023-03-05T06:34:47.192Z,17.80
2023-03-05T06:37:14.255Z,17.60
2023-03-05T06:39:41.211Z,15.90
2023-03-05T06:42:09.588Z,17.30
2023-03-05T06:44:43.220Z,17.30
2023-03-05T06:47:10.285Z,20.10
2023-03-05T06:49:38.489Z,20.40
2023-03-05T06:52:06.845Z,24.60
2023-03-05T06:54:33.849Z,23.10
2023-03-05T06:57:00.905Z,30.70
2023-03-05T06:59:27.829Z,41.90
2023-03-05T07:01:54.843Z,50.70
2023-03-05T07:04:23.570Z,30.60
2023-03-05T07:06:50.825Z,26.70
2023-03-05T07:09:18.269Z,29.00
2023-03-05T07:11:45.345Z,26.10
2023-03-05T07:14:12.322Z,25.00
2023-03-05T07:16:39.440Z,34.80
2023-03-05T07:19:07.505Z,25.80
2023-03-05T07:21:36.906Z,23.30
2023-03-05T07:24:06.655Z,25.80
2023-03-05T07:26:34.370Z,26.40
2023-03-05T07:29:02.205Z,24.10
2023-03-05T07:31:32.678Z,25.40
2023-03-05T07:34:01.732Z,26.60
2023-03-05T07:36:34.372Z,23.40
2023-03-05T07:39:04.213Z,27.10
2023-03-05T07:41:32.612Z,29.90
2023-03-05T07:43:59.762Z,35.60
2023-03-05T07:46:30.187Z,36.30
2023-03-05T07:48:57.251Z,36.30
2023-03-05T07:51:26.210Z,31.60
2023-03-05T07:53:55.531Z,28.30
2023-03-05T07:56:24.045Z,31.80
2023-03-05T07:58:51.911Z,32.20
2023-03-05T08:01:18.984Z,35.60
2023-03-05T08:03:45.918Z,44.10
2023-03-05T08:06:13.031Z,36.70
2023-03-05T08:08:40.054Z,35.10
2023-03-05T08:11:10.213Z,33.80
2023-03-05T08:13:37.839Z,37.80
2023-03-05T08:16:06.571Z,33.40
2023-03-05T08:18:34.115Z,34.60
2023-03-05T08:21:01.537Z,33.90
2023-03-05T08:23:29.334Z,32.30
2023-03-05T08:25:57.302Z,31.90
2023-03-05T08:28:26.874Z,33.90
2023-03-05T08:30:55.670Z,40.00
2023-03-05T08:33:22.835Z,34.90
2023-03-05T08:35:50.172Z,28.70
2023-03-05T08:38:18.920Z,26.70
2023-03-05T08:40:48.027Z,23.20
2023-03-05T08:43:33.109Z,24.40
2023-03-05T08:46:08.273Z,30.80
2023-03-05T08:48:36.408Z,29.90
2023-03-05T08:51:32.631Z,23.30
2023-03-05T08:54:01.200Z,49.00
2023-03-05T08:56:31.720Z,25.50
2023-03-05T08:58:59.952Z,21.70
2023-03-05T09:01:29.438Z,19.60
2023-03-05T09:03:59.819Z,20.60
2023-03-05T09:06:36.168Z,20.00
2023-03-05T09:09:20.338Z,24.10
2023-03-05T09:11:55.239Z,20.40
2023-03-05T09:14:27.860Z,20.50
2023-03-05T09:16:59.320Z,18.40
2023-03-05T09:19:27.150Z,16.30
2023-03-05T09:21:56.883Z,18.30
2023-03-05T09:24:24.292Z,20.00
2023-03-05T09:26:51.876Z,21.80
2023-03-05T09:29:19.739Z,20.80
2023-03-05T09:31:51.373Z,20.50
2023-03-05T09:34:18.913Z,17.80
2023-03-05T09:36:50.735Z,16.80
2023-03-05T09:39:18.060Z,15.20
2023-03-05T09:42:13.212Z,20.40
2023-03-05T09:45:02.737Z,20.80
2023-03-05T09:48:31.341Z,20.80
2023-03-05T09:51:24.499Z,17.90
2023-03-05T09:54:15.955Z,16.60
2023-03-05T09:57:14.055Z,19.60
2023-03-05T10:00:03.514Z,22.70
2023-03-05T10:02:51.221Z,24.80
2023-03-05T10:06:03.600Z,18.20
2023-03-05T10:09:22.654Z,20.30
2023-03-05T10:11:58.737Z,19.70
2023-03-05T10:14:35.541Z,20.60
2023-03-05T10:17:32.299Z,19.00
2023-03-05T10:20:24.386Z,23.00
2023-03-05T10:23:39.308Z,22.30
2023-03-05T10:26:45.018Z,21.30
2023-03-05T10:29:50.801Z,18.30
2023-03-05T10:32:39.180Z,17.70
2023-03-05T10:35:19.188Z,17.30
2023-03-05T10:38:06.175Z,17.20
2023-03-05T10:40:58.379Z,19.50
2023-03-05T10:44:09.401Z,20.40
2023-03-05T10:46:39.619Z,22.30
2023-03-05T10:49:37.155Z,20.80
2023-03-05T10:52:22.231Z,25.10
2023-03-05T10:54:51.118Z,18.90
2023-03-05T10:57:32.311Z,26.00
2023-03-05T11:00:06.020Z,22.10
2023-03-05T11:02:34.132Z,26.30
2023-03-05T11:05:01.815Z,22.70
2023-03-05T11:07:33.866Z,24.70
2023-03-05T11:10:16.045Z,23.10
2023-03-05T11:12:44.564Z,26.00
2023-03-05T11:15:12.045Z,25.40
2023-03-05T11:17:43.988Z,28.30
2023-03-05T11:20:26.814Z,28.10
2023-03-05T11:23:25.582Z,28.20
2023-03-05T11:26:02.882Z,26.80
2023-03-05T11:28:59.500Z,26.10
2023-03-05T11:31:29.880Z,25.60
2023-03-05T11:34:23.048Z,26.20
2023-03-05T11:36:52.767Z,27.10
2023-03-05T11:39:22.775Z,25.30
2023-03-05T11:41:52.163Z,24.10
2023-03-05T11:44:53.504Z,27.20
2023-03-05T11:47:46.421Z,24.60
2023-03-05T11:50:49.064Z,22.70
2023-03-05T11:53:29.230Z,26.00
2023-03-05T11:56:18.049Z,24.70
2023-03-05T11:59:10.461Z,26.00
2023-03-05T12:01:46.040Z,25.40
2023-03-05T12:04:18.099Z,20.60
2023-03-05T12:07:15.008Z,20.00
2023-03-05T12:09:52.280Z,23.10
2023-03-05T12:12:53.232Z,23.30
2023-03-05T12:16:14.297Z,26.70
2023-03-05T12:18:57.846Z,21.00
2023-03-05T12:21:38.954Z,28.80
2023-03-05T12:24:27.893Z,28.10
2023-03-05T12:27:16.291Z,28.60
2023-03-05T12:29:49.883Z,28.30
2023-03-05T12:32:24.808Z,24.30
2023-03-05T12:35:05.787Z,33.60
2023-03-05T12:37:32.650Z,30.50
2023-03-05T12:40:03.634Z,25.90
2023-03-05T12:42:30.940Z,27.20
2023-03-05T12:45:14.254Z,23.50
2023-03-05T12:47:42.798Z,25.90
2023-03-05T12:50:47.062Z,23.50
2023-03-05T12:53:19.061Z,26.70
2023-03-05T12:56:25.934Z,24.60
2023-03-05T12:59:00.058Z,26.30
2023-03-05T13:01:27.505Z,33.50
2023-03-05T13:04:00.477Z,25.80
2023-03-05T13:06:36.660Z,25.40
2023-03-05T13:09:15.777Z,25.70
2023-03-05T13:11:50.771Z,22.30
2023-03-05T13:15:03.830Z,23.50
2023-03-05T13:18:00.152Z,24.70
2023-03-05T13:21:20.141Z,21.60
2023-03-05T13:23:57.597Z,22.30
2023-03-05T13:26:35.680Z,19.30
2023-03-05T13:29:13.129Z,24.90
2023-03-05T13:31:58.825Z,25.10
2023-03-05T13:34:44.600Z,22.60
2023-03-05T13:37:20.734Z,24.90
2023-03-05T13:39:59.609Z,22.20
2023-03-05T13:42:47.614Z,23.50
2023-03-05T13:45:35.136Z,23.30
2023-03-05T13:48:21.784Z,25.90
2023-03-05T13:51:08.440Z,26.10
2023-03-05T13:53:36.560Z,27.90
2023-03-05T13:56:15.085Z,24.50
2023-03-05T13:59:16.766Z,29.80
2023-03-05T14:01:53.014Z,36.80
2023-03-05T14:04:29.942Z,37.80
2023-03-05T14:07:33.426Z,31.40
2023-03-05T14:10:08.756Z,23.90
2023-03-05T14:12:54.422Z,18.90
2023-03-05T14:18:54.822Z,23.50
2023-03-05T14:21:44.686Z,27.70
2023-03-05T14:24:31.055Z,20.70
2023-03-05T14:27:13.193Z,24.20
2023-03-05T14:30:07.605Z,22.40
2023-03-05T14:32:40.780Z,26.20
2023-03-05T14:35:39.916Z,25.80
2023-03-05T14:38:22.583Z,26.40
2023-03-05T14:41:47.956Z,38.40
2023-03-05T14:44:26.346Z,29.80
2023-03-05T14:46:54.200Z,34.90
2023-03-05T14:49:48.583Z,35.10
2023-03-05T14:55:09.106Z,29.90
2023-03-05T14:57:45.531Z,26.30
2023-03-05T15:00:16.205Z,31.10
2023-03-05T15:02:43.457Z,31.30
2023-03-05T15:05:10.675Z,26.10
2023-03-05T15:07:38.212Z,30.20
2023-03-05T15:10:12.476Z,25.80
2023-03-05T15:12:41.784Z,27.60
2023-03-05T15:18:07.105Z,32.20
2023-03-05T15:20:38.440Z,37.50
2023-03-05T15:23:05.827Z,35.70
2023-03-05T15:25:32.910Z,32.80
2023-03-05T15:28:01.227Z,38.20
2023-03-05T15:30:30.004Z,37.60
2023-03-05T15:33:00.225Z,34.90
2023-03-05T15:35:27.846Z,39.60
2023-03-05T15:37:57.969Z,35.20
2023-03-05T15:40:27.350Z,32.10
2023-03-05T15:42:56.566Z,34.30
2023-03-05T15:45:24.195Z,36.30
2023-03-05T15:47:52.698Z,33.40
2023-03-05T15:50:21.274Z,39.40
2023-03-05T15:52:49.363Z,37.20
2023-03-05T15:55:24.045Z,37.80
2023-03-05T15:57:53.326Z,30.20
2023-03-05T16:00:25.703Z,28.40
2023-03-05T16:02:53.289Z,25.60
2023-03-05T16:05:20.553Z,22.20
2023-03-05T16:07:51.737Z,25.40
2023-03-05T16:10:24.952Z,25.30
2023-03-05T16:13:03.403Z,20.60
2023-03-05T16:15:33.059Z,21.80
2023-03-05T16:18:05.700Z,19.90
2023-03-05T16:20:35.881Z,16.20
2023-03-05T16:23:04.604Z,17.30
2023-03-05T16:25:34.113Z,17.20
2023-03-05T16:28:01.284Z,19.30
2023-03-05T16:30:29.064Z,22.30
2023-03-05T16:32:56.089Z,22.20
2023-03-05T16:35:23.277Z,20.50
2023-03-05T16:37:50.624Z,21.50
2023-03-05T16:40:18.245Z,22.50
2023-03-05T16:42:45.307Z,20.30
2023-03-05T16:45:12.500Z,23.10
2023-03-05T16:47:41.343Z,30.70
2023-03-05T16:50:11.380Z,26.40
2023-03-05T16:52:38.384Z,29.40
2023-03-05T16:55:06.788Z,26.90
2023-03-05T16:57:34.237Z,26.30
2023-03-05T17:00:03.642Z,43.50
2023-03-05T17:02:31.053Z,41.80
2023-03-05T17:05:01.071Z,44.80
2023-03-05T17:07:30.647Z,46.60
2023-03-05T17:09:57.625Z,45.40
2023-03-05T17:12:24.629Z,39.70
2023-03-05T17:14:52.934Z,33.60
2023-03-05T17:17:20.207Z,28.00
2023-03-05T17:19:48.886Z,32.10
2023-03-05T17:22:18.695Z,28.80
2023-03-05T17:24:47.548Z,26.70
2023-03-05T17:27:18.487Z,41.00
2023-03-05T17:29:46.408Z,35.70
2023-03-05T17:32:14.856Z,30.10
2023-03-05T17:34:42.768Z,27.20
2023-03-05T17:37:10.547Z,26.50
2023-03-05T17:39:39.580Z,29.00
2023-03-05T17:42:20.298Z,27.00
2023-03-05T17:44:50.867Z,27.10
2023-03-05T17:47:18.004Z,34.20
2023-03-05T17:49:47.896Z,26.00
2023-03-05T17:52:15.266Z,30.20
2023-03-05T17:54:45.452Z,34.90
2023-03-05T17:57:15.386Z,30.40
2023-03-05T17:59:44.744Z,34.50
2023-03-05T18:02:12.515Z,28.00
2023-03-05T18:04:41.000Z,32.60
2023-03-05T18:07:08.129Z,34.50
2023-03-05T18:09:35.765Z,40.90
2023-03-05T18:12:02.907Z,39.80
2023-03-05T18:14:31.665Z,27.60
2023-03-05T18:16:59.639Z,31.40
2023-03-05T18:19:26.678Z,26.40
2023-03-05T18:21:53.896Z,20.40
2023-03-05T18:24:21.444Z,20.70
2023-03-05T18:26:48.959Z,21.10
2023-03-05T18:29:18.790Z,18.10
2023-03-05T18:31:46.217Z,21.00
2023-03-05T18:34:13.159Z,22.60
2023-03-05T18:36:40.962Z,28.30
2023-03-05T18:39:11.515Z,29.90
2023-03-05T18:41:41.106Z,22.20
2023-03-05T18:44:11.265Z,20.20
2023-03-05T18:46:46.257Z,22.40
2023-03-05T18:49:15.441Z,22.80
2023-03-05T18:51:49.298Z,21.10
2023-03-05T18:54:18.583Z,21.50
2023-03-05T18:56:50.062Z,20.00
2023-03-05T18:59:22.560Z,19.00
2023-03-05T19:01:53.729Z,18.20
2023-03-05T19:04:25.756Z,19.70
2023-03-05T19:06:53.133Z,24.60
2023-03-05T19:09:41.154Z,21.80
2023-03-05T19:12:09.721Z,25.10
2023-03-05T19:14:37.387Z,27.00
2023-03-05T19:17:08.706Z,24.60
2023-03-05T19:19:37.638Z,25.20
2023-03-05T19:22:06.288Z,26.00
2023-03-05T19:24:33.795Z,25.90
2023-03-05T19:27:09.645Z,26.00
2023-03-05T19:29:41.916Z,26.50
2023-03-05T19:32:13.638Z,26.60
2023-03-05T19:34:41.572Z,24.30
2023-03-05T19:37:10.997Z,26.80
2023-03-05T19:39:38.203Z,27.90
2023-03-05T19:42:10.152Z,33.20
2023-03-05T19:44:38.582Z,37.20
2023-03-05T19:47:07.576Z,26.90
2023-03-05T19:49:35.512Z,28.40
2023-03-05T19:52:05.658Z,31.10
2023-03-05T19:54:34.000Z,28.40
2023-03-05T19:57:02.697Z,33.20
2023-03-05T19:59:30.654Z,32.90
2023-03-05T20:01:58.220Z,31.00
2023-03-05T20:04:31.018Z,34.50
2023-03-05T20:07:06.748Z,33.00
2023-03-05T20:09:33.809Z,37.70
2023-03-05T20:12:04.935Z,33.20
2023-03-05T20:14:32.814Z,37.80
2023-03-05T20:17:12.125Z,33.20
2023-03-05T20:19:39.081Z,36.00
2023-03-05T20:22:06.650Z,33.40
2023-03-05T20:24:34.386Z,35.10
2023-03-05T20:27:01.707Z,37.50
2023-03-05T20:29:29.512Z,33.60
2023-03-05T20:31:56.858Z,39.50
2023-03-05T20:34:29.208Z,38.20
2023-03-05T20:36:58.375Z,37.00
2023-03-05T20:39:28.745Z,36.50
2023-03-05T20:42:01.051Z,34.50
2023-03-05T20:44:39.067Z,35.20
2023-03-05T20:47:25.573Z,36.60
2023-03-05T20:49:55.893Z,36.70
2023-03-05T20:52:26.629Z,36.60
2023-03-05T20:55:05.698Z,34.50
2023-03-05T20:57:36.991Z,34.00
2023-03-05T21:00:08.195Z,36.00
2023-03-05T21:02:35.313Z,33.90
2023-03-05T21:05:02.327Z,30.90
2023-03-05T21:07:30.364Z,31.70
2023-03-05T21:09:57.349Z,35.40
2023-03-05T21:12:24.445Z,32.90
2023-03-05T21:14:51.501Z,36.10
2023-03-05T21:17:19.127Z,32.90
2023-03-05T21:19:52.098Z,35.40
2023-03-05T21:22:19.857Z,31.60
2023-03-05T21:25:00.602Z,34.90
2023-03-05T21:27:28.500Z,35.50
2023-03-05T21:29:58.550Z,32.10
2023-03-05T21:32:28.265Z,33.10
2023-03-05T21:35:02.577Z,33.80
2023-03-05T21:37:33.796Z,31.70
2023-03-05T21:40:01.068Z,47.60
2023-03-05T21:42:28.063Z,46.70
2023-03-05T21:44:55.161Z,36.30
2023-03-05T21:47:24.536Z,36.60
2023-03-05T21:49:51.486Z,42.30
2023-03-05T21:52:21.523Z,42.10
2023-03-05T21:54:53.898Z,39.50
2023-03-05T21:57:21.910Z,60.60
2023-03-05T21:59:52.063Z,51.30
2023-03-05T22:02:20.682Z,45.20
2023-03-05T22:04:59.227Z,45.90
2023-03-05T22:07:27.477Z,41.70
2023-03-05T22:09:57.396Z,40.50
2023-03-05T22:13:04.511Z,41.50
2023-03-05T22:15:33.185Z,31.20
2023-03-05T22:18:14.266Z,31.90
2023-03-05T22:20:53.342Z,36.00
2023-03-05T22:23:27.847Z,47.60
2023-03-05T22:25:59.022Z,41.90
2023-03-05T22:28:28.464Z,32.10
2023-03-05T22:30:59.975Z,36.00
2023-03-05T22:33:28.834Z,27.30
2023-03-05T22:35:56.353Z,23.00
2023-03-05T22:38:24.804Z,20.70
2023-03-05T22:40:58.214Z,20.30
2023-03-05T22:43:25.501Z,18.70
2023-03-05T22:45:55.589Z,15.60
2023-03-05T22:48:27.818Z,15.90
2023-03-05T22:50:55.775Z,21.90
2023-03-05T22:53:27.165Z,20.90
2023-03-05T22:55:55.629Z,21.70
2023-03-05T22:58:25.620Z,21.90
2023-03-05T23:00:53.579Z,19.40
2023-03-05T23:03:24.056Z,12.60
2023-03-05T23:05:52.498Z,16.70
2023-03-05T23:08:20.680Z,16.30
2023-03-05T23:10:48.202Z,17.40
2023-03-05T23:13:15.300Z,15.50
2023-03-05T23:15:42.291Z,15.60
2023-03-05T23:18:09.362Z,16.50
2023-03-05T23:20:36.929Z,14.50
2023-03-05T23:23:03.956Z,17.10
2023-03-05T23:25:33.263Z,16.70
2023-03-05T23:28:51.292Z,17.80
2023-03-05T23:31:18.708Z,18.80
2023-03-05T23:33:46.100Z,18.60
2023-03-05T23:36:13.070Z,18.90
2023-03-05T23:38:40.058Z,17.30
2023-03-05T23:41:09.040Z,17.80
2023-03-05T23:43:40.680Z,17.10
2023-03-05T23:46:11.450Z,21.70
2023-03-05T23:48:38.413Z,19.90
2023-03-05T23:51:10.060Z,21.70
2023-03-05T23:53:37.148Z,19.10
2023-03-05T23:56:09.966Z,19.40
2023-03-05T23:58:37.885Z,17.80
